Time,TemperatureF,DewpointF,PressureIn,WindDirection,WindDirectionDegrees,WindSpeedMPH,WindSpeedGustMPH,Humidity,HourlyPrecipIn,Conditions,Clouds,dailyrainin,SoftwareType,DateUTC
2013-03-07 00:00:00,37.9,15.2,30.05,NNW,328,0.0,0.0,39,0.00,,,0.00,VWS V14.00,2013-03-07 05:00:00,
2013-03-07 00:02:00,37.9,15.2,30.05,ENE,57,4.0,4.0,39,0.00,,,0.00,VWS V14.00,2013-03-07 05:02:00,
2013-03-07 00:07:00,37.9,15.2,30.05,SW,231,3.1,4.0,39,0.00,,,0.00,VWS V14.00,2013-03-07 05:07:00,
2013-03-07 00:13:00,37.9,15.2,30.05,SW,218,2.7,2.7,39,0.00,,,0.00,VWS V14.00,2013-03-07 05:13:00,
2013-03-07 00:17:00,37.9,15.2,30.05,South,186,2.7,2.7,39,0.00,,,0.00,VWS V14.00,2013-03-07 05:17:00,
2013-03-07 00:23:00,37.9,15.2,30.05,NNW,339,0.0,0.0,39,0.00,,,0.00,VWS V14.00,2013-03-07 05:23:00,
2013-03-07 00:28:00,37.8,15.0,30.05,SW,217,0.0,2.2,39,0.00,,,0.00,VWS V14.00,2013-03-07 05:28:00,
2013-03-07 00:33:00,37.8,15.6,30.05,SSW,195,2.2,3.6,40,0.00,,,0.00,VWS V14.00,2013-03-07 05:33:00,
2013-03-07 00:38:00,37.8,15.0,30.05,SSE,152,4.0,4.0,39,0.00,,,0.00,VWS V14.00,2013-03-07 05:38:00,
2013-03-07 00:43:00,37.8,15.0,30.05,ESE,123,0.0,0.0,39,0.00,,,0.00,VWS V14.00,2013-03-07 05:43:00,
2013-03-07 00:48:00,37.8,15.6,30.05,NNW,332,0.0,0.0,40,0.00,,,0.00,VWS V14.00,2013-03-07 05:48:00,
2013-03-07 00:53:00,37.6,15.5,30.05,WNW,299,0.0,0.0,40,0.00,,,0.00,VWS V14.00,2013-03-07 05:53:00,
2013-03-07 00:58:00,37.6,15.5,30.05,East,88,0.0,0.0,40,0.00,,,0.00,VWS V14.00,2013-03-07 05:58:00,
2013-03-07 01:03:00,37.6,16.0,30.08,NE,34,3.6,3.6,41,0.00,,,0.00,VWS V14.00,2013-03-07 06:03:00,
2013-03-07 01:08:00,37.6,15.5,30.08,SSE,160,0.0,3.6,40,0.00,,,0.00,VWS V14.00,2013-03-07 06:08:00,
2013-03-07 01:13:00,37.6,15.5,30.08,SE,131,2.2,3.6,40,0.00,,,0.00,VWS V14.00,2013-03-07 06:13:00,
2013-03-07 01:18:00,37.6,15.5,30.08,SE,139,4.0,4.0,40,0.00,,,0.00,VWS V14.00,2013-03-07 06:18:00,
2013-03-07 01:23:00,37.6,15.5,30.08,South,179,3.1,3.6,40,0.00,,,0.00,VWS V14.00,2013-03-07 06:23:00,
2013-03-07 01:28:00,37.6,15.5,30.08,SE,130,0.0,2.7,40,0.00,,,0.00,VWS V14.00,2013-03-07 06:28:00,
2013-03-07 01:33:00,37.6,15.5,30.08,SE,146,3.1,3.1,40,0.00,,,0.00,VWS V14.00,2013-03-07 06:33:00,
2013-03-07 01:38:00,37.6,16.0,30.08,SSE,162,2.7,3.1,41,0.00,,,0.00,VWS V14.00,2013-03-07 06:38:00,
2013-03-07 01:43:00,37.4,15.3,30.08,South,190,0.0,0.0,40,0.00,,,0.00,VWS V14.00,2013-03-07 06:43:00,
2013-03-07 01:48:00,37.4,14.7,30.08,SSW,203,3.6,3.6,39,0.00,,,0.00,VWS V14.00,2013-03-07 06:48:00,
2013-03-07 01:53:00,37.4,14.7,30.08,South,171,3.1,3.1,39,0.00,,,0.00,VWS V14.00,2013-03-07 06:53:00,
2013-03-07 01:58:00,37.4,14.7,30.08,SW,220,0.0,0.0,39,0.00,,,0.00,VWS V14.00,2013-03-07 06:58:00,
2013-03-07 02:03:00,37.6,14.9,30.08,South,169,0.0,0.0,39,0.00,,,0.00,VWS V14.00,2013-03-07 07:03:00,
2013-03-07 02:08:00,37.4,15.3,30.08,SE,134,0.0,0.0,40,0.00,,,0.00,VWS V14.00,2013-03-07 07:08:00,
2013-03-07 02:13:00,37.4,15.3,30.08,SE,137,0.0,0.0,40,0.00,,,0.00,VWS V14.00,2013-03-07 07:13:00,
2013-03-07 02:18:00,37.2,15.1,30.08,South,188,0.0,0.0,40,0.00,,,0.00,VWS V14.00,2013-03-07 07:18:00,
2013-03-07 02:23:00,37.2,15.7,30.08,SSE,147,0.0,0.0,41,0.00,,,0.00,VWS V14.00,2013-03-07 07:23:00,
2013-03-07 02:28:00,37.2,15.7,30.08,SE,138,4.0,4.0,41,0.00,,,0.00,VWS V14.00,2013-03-07 07:28:00,
2013-03-07 02:33:00,37.0,15.5,30.08,SSE,148,0.0,3.1,41,0.00,,,0.00,VWS V14.00,2013-03-07 07:33:00,
2013-03-07 02:38:00,37.0,15.0,30.08,SE,139,0.0,0.0,40,0.00,,,0.00,VWS V14.00,2013-03-07 07:38:00,
2013-03-07 02:43:00,37.0,15.0,30.08,SE,135,2.7,2.7,40,0.00,,,0.00,VWS V14.00,2013-03-07 07:43:00,
2013-03-07 02:48:00,37.2,15.1,30.08,SSE,151,0.0,0.0,40,0.00,,,0.00,VWS V14.00,2013-03-07 07:48:00,
2013-03-07 02:53:00,37.2,15.1,30.08,South,176,2.7,2.7,40,0.00,,,0.00,VWS V14.00,2013-03-07 07:53:00,
2013-03-07 02:59:00,37.2,15.1,30.08,SSW,205,0.0,2.7,40,0.00,,,0.00,VWS V14.00,2013-03-07 07:59:00,
2013-03-07 03:04:00,37.2,14.6,30.08,SSW,194,0.0,0.0,39,0.00,,,0.00,VWS V14.00,2013-03-07 08:04:00,
2013-03-07 03:09:00,37.2,15.1,30.08,NNE,32,3.1,3.1,40,0.00,,,0.00,VWS V14.00,2013-03-07 08:09:00,
2013-03-07 03:14:00,37.0,15.0,30.08,North,4,0.0,0.0,40,0.00,,,0.00,VWS V14.00,2013-03-07 08:14:00,
2013-03-07 03:19:00,36.9,14.8,30.08,SSW,194,0.0,0.0,40,0.00,,,0.00,VWS V14.00,2013-03-07 08:19:00,
2013-03-07 03:24:00,36.9,14.8,30.08,SSW,204,0.0,2.7,40,0.00,,,0.00,VWS V14.00,2013-03-07 08:24:00,
2013-03-07 03:29:00,36.9,14.8,30.08,SSW,205,0.0,0.0,40,0.00,,,0.00,VWS V14.00,2013-03-07 08:29:00,
2013-03-07 03:34:00,36.7,14.6,30.05,SW,214,2.7,3.1,40,0.00,,,0.00,VWS V14.00,2013-03-07 08:34:00,
2013-03-07 03:39:00,36.7,14.6,30.05,SE,126,0.0,2.2,40,0.00,,,0.00,VWS V14.00,2013-03-07 08:39:00,
2013-03-07 03:44:00,36.5,14.5,30.05,SW,233,0.0,0.0,40,0.00,,,0.00,VWS V14.00,2013-03-07 08:44:00,
2013-03-07 03:49:00,36.3,14.3,30.08,South,171,0.0,0.0,40,0.00,,,0.00,VWS V14.00,2013-03-07 08:49:00,
2013-03-07 03:54:00,36.3,14.3,30.08,SSW,206,2.7,2.7,40,0.00,,,0.00,VWS V14.00,2013-03-07 08:54:00,
2013-03-07 03:59:00,36.3,14.3,30.08,South,189,3.1,4.0,40,0.00,,,0.00,VWS V14.00,2013-03-07 08:59:00,
2013-03-07 04:04:00,36.3,14.3,30.08,SW,226,2.7,2.7,40,0.00,,,0.00,VWS V14.00,2013-03-07 09:04:00,
2013-03-07 04:09:00,36.3,14.3,30.08,South,175,0.0,0.0,40,0.00,,,0.00,VWS V14.00,2013-03-07 09:09:00,
2013-03-07 04:14:00,36.1,14.7,30.08,SE,126,2.7,4.5,41,0.00,,,0.00,VWS V14.00,2013-03-07 09:14:00,
2013-03-07 04:19:00,36.0,14.6,30.08,SE,128,0.0,4.9,41,0.00,,,0.00,VWS V14.00,2013-03-07 09:19:00,
2013-03-07 04:24:00,35.8,14.9,30.08,SE,142,2.7,3.6,42,0.00,,,0.00,VWS V14.00,2013-03-07 09:24:00,
2013-03-07 04:29:00,35.8,14.9,30.08,South,174,0.0,0.0,42,0.00,,,0.00,VWS V14.00,2013-03-07 09:29:00,
2013-03-07 04:34:00,36.0,14.6,30.08,SE,141,3.1,4.0,41,0.00,,,0.00,VWS V14.00,2013-03-07 09:34:00,
2013-03-07 04:39:00,36.1,14.2,30.08,SSE,154,2.7,2.7,40,0.00,,,0.00,VWS V14.00,2013-03-07 09:39:00,
2013-03-07 04:44:00,36.3,14.3,30.08,WSW,237,2.7,3.6,40,0.00,,,0.00,VWS V14.00,2013-03-07 09:44:00,
2013-03-07 04:49:00,36.3,14.3,30.08,SW,234,0.0,0.0,40,0.00,,,0.00,VWS V14.00,2013-03-07 09:49:00,
2013-03-07 04:54:00,36.3,14.3,30.08,SW,227,0.0,0.0,40,0.00,,,0.00,VWS V14.00,2013-03-07 09:54:00,
2013-03-07 04:59:00,36.1,14.2,30.08,SSW,193,0.0,0.0,40,0.00,,,0.00,VWS V14.00,2013-03-07 09:59:00,
2013-03-07 05:04:00,36.1,14.2,30.08,SW,219,2.7,2.7,40,0.00,,,0.00,VWS V14.00,2013-03-07 10:04:00,
2013-03-07 05:09:00,36.3,14.3,30.08,SSE,167,3.1,4.9,40,0.00,,,0.00,VWS V14.00,2013-03-07 10:09:00,
2013-03-07 05:15:00,36.5,14.5,30.08,SSW,211,4.0,4.0,40,0.00,,,0.00,VWS V14.00,2013-03-07 10:15:00,
2013-03-07 05:20:00,36.7,14.6,30.08,SW,221,2.7,4.0,40,0.00,,,0.00,VWS V14.00,2013-03-07 10:20:00,
2013-03-07 05:25:00,36.9,14.8,30.08,WSW,248,4.0,4.0,40,0.00,,,0.00,VWS V14.00,2013-03-07 10:25:00,
2013-03-07 05:30:00,36.9,14.2,30.08,SSW,206,0.0,0.0,39,0.00,,,0.00,VWS V14.00,2013-03-07 10:30:00,
2013-03-07 05:35:00,36.9,14.8,30.11,SSW,204,2.7,3.6,40,0.00,,,0.00,VWS V14.00,2013-03-07 10:35:00,
2013-03-07 05:40:00,36.9,14.8,30.11,SE,134,2.2,2.2,40,0.00,,,0.00,VWS V14.00,2013-03-07 10:40:00,
2013-03-07 05:45:00,37.0,15.0,30.11,SSW,212,2.7,4.9,40,0.00,,,0.00,VWS V14.00,2013-03-07 10:45:00,
2013-03-07 05:50:00,37.2,14.6,30.11,WSW,237,3.6,3.6,39,0.00,,,0.00,VWS V14.00,2013-03-07 10:50:00,
2013-03-07 05:55:00,37.2,14.6,30.11,South,187,0.0,2.2,39,0.00,,,0.00,VWS V14.00,2013-03-07 10:55:00,
2013-03-07 06:00:00,37.2,14.6,30.11,SW,231,4.0,4.0,39,0.00,,,0.00,VWS V14.00,2013-03-07 11:00:00,
2013-03-07 06:05:00,37.2,14.6,30.11,SSW,213,0.0,0.0,39,0.00,,,0.00,VWS V14.00,2013-03-07 11:05:00,
2013-03-07 06:10:00,37.0,14.4,30.11,SW,224,5.8,5.8,39,0.00,,,0.00,VWS V14.00,2013-03-07 11:10:00,
2013-03-07 06:15:00,37.2,14.6,30.11,SW,229,4.0,4.0,39,0.00,,,0.00,VWS V14.00,2013-03-07 11:15:00,
2013-03-07 06:20:00,37.2,14.6,30.11,WSW,242,4.9,4.9,39,0.00,,,0.00,VWS V14.00,2013-03-07 11:20:00,
2013-03-07 06:25:00,37.0,14.4,30.11,SW,223,0.0,0.0,39,0.00,,,0.00,VWS V14.00,2013-03-07 11:25:00,
2013-03-07 06:30:00,37.0,14.4,30.11,SW,223,0.0,0.0,39,0.00,,,0.00,VWS V14.00,2013-03-07 11:30:00,
2013-03-07 06:35:00,36.9,14.8,30.14,ESE,110,0.0,0.0,40,0.00,,,0.00,VWS V14.00,2013-03-07 11:35:00,
2013-03-07 06:40:00,36.9,14.8,30.14,East,101,0.0,0.0,40,0.00,,,0.00,VWS V14.00,2013-03-07 11:40:00,
2013-03-07 06:45:00,36.7,15.2,30.14,South,181,0.0,0.0,41,0.00,,,0.00,VWS V14.00,2013-03-07 11:45:00,
2013-03-07 06:50:00,36.7,14.6,30.14,SSW,205,0.0,0.0,40,0.00,,,0.00,VWS V14.00,2013-03-07 11:50:00,
2013-03-07 06:55:00,36.7,15.2,30.14,SSW,201,0.0,0.0,41,0.00,,,0.00,VWS V14.00,2013-03-07 11:55:00,
2013-03-07 07:00:00,36.7,15.8,30.14,SE,141,3.1,3.1,42,0.00,,,0.00,VWS V14.00,2013-03-07 12:00:00,
2013-03-07 07:05:00,36.7,15.8,30.14,ESE,122,0.0,3.6,42,0.00,,,0.00,VWS V14.00,2013-03-07 12:05:00,
2013-03-07 07:10:00,36.7,15.8,30.14,ESE,111,0.0,0.0,42,0.00,,,0.00,VWS V14.00,2013-03-07 12:10:00,
2013-03-07 07:15:00,36.7,15.8,30.14,SE,129,0.0,2.7,42,0.00,,,0.00,VWS V14.00,2013-03-07 12:15:00,
2013-03-07 07:20:00,36.7,15.8,30.14,ESE,123,0.0,0.0,42,0.00,,,0.00,VWS V14.00,2013-03-07 12:20:00,
2013-03-07 07:25:00,36.7,15.8,30.14,NE,43,3.1,3.1,42,0.00,,,0.00,VWS V14.00,2013-03-07 12:25:00,
2013-03-07 07:30:00,36.7,15.8,30.14,SSE,153,0.0,0.0,42,0.00,,,0.00,VWS V14.00,2013-03-07 12:30:00,
2013-03-07 07:36:00,36.7,15.8,30.17,SSE,153,0.0,0.0,42,0.00,,,0.00,VWS V14.00,2013-03-07 12:36:00,
2013-03-07 07:41:00,36.7,15.8,30.17,East,100,0.0,0.0,42,0.00,,,0.00,VWS V14.00,2013-03-07 12:41:00,
2013-03-07 07:46:00,36.7,15.2,30.17,ESE,102,0.0,0.0,41,0.00,,,0.00,VWS V14.00,2013-03-07 12:46:00,
2013-03-07 07:51:00,36.9,15.4,30.17,East,88,0.0,0.0,41,0.00,,,0.00,VWS V14.00,2013-03-07 12:51:00,
2013-03-07 07:56:00,37.0,15.5,30.17,ESE,105,0.0,0.0,41,0.00,,,0.00,VWS V14.00,2013-03-07 12:56:00,
2013-03-07 08:01:00,37.2,15.7,30.17,SE,136,0.0,0.0,41,0.00,,,0.00,VWS V14.00,2013-03-07 13:01:00,
2013-03-07 08:06:00,37.4,15.3,30.17,East,83,0.0,0.0,40,0.00,,,0.00,VWS V14.00,2013-03-07 13:06:00,
2013-03-07 08:11:00,37.6,15.5,30.17,SE,135,0.0,0.0,40,0.00,,,0.00,VWS V14.00,2013-03-07 13:11:00,
2013-03-07 08:16:00,37.9,15.8,30.17,SSE,152,0.0,0.0,40,0.00,,,0.00,VWS V14.00,2013-03-07 13:16:00,
2013-03-07 08:21:00,37.9,15.8,30.17,ESE,106,0.0,0.0,40,0.00,,,0.00,VWS V14.00,2013-03-07 13:21:00,
2013-03-07 08:26:00,38.3,15.5,30.17,SSE,159,0.0,0.0,39,0.00,,,0.00,VWS V14.00,2013-03-07 13:26:00,
2013-03-07 08:31:00,38.5,15.7,30.17,ENE,75,0.0,0.0,39,0.00,,,0.00,VWS V14.00,2013-03-07 13:31:00,
2013-03-07 08:36:00,38.8,16.0,30.17,SE,136,2.7,3.1,39,0.00,,,0.00,VWS V14.00,2013-03-07 13:36:00,
2013-03-07 08:41:00,38.8,15.4,30.17,SSE,156,2.2,4.0,38,0.00,,,0.00,VWS V14.00,2013-03-07 13:41:00,
2013-03-07 08:46:00,38.8,15.4,30.17,SE,124,5.4,5.4,38,0.00,,,0.00,VWS V14.00,2013-03-07 13:46:00,
2013-03-07 08:51:00,38.8,15.4,30.17,SE,132,0.0,0.0,38,0.00,,,0.00,VWS V14.00,2013-03-07 13:51:00,
2013-03-07 08:56:00,38.8,15.4,30.17,West,278,2.7,5.8,38,0.00,,,0.00,VWS V14.00,2013-03-07 13:56:00,
2013-03-07 09:01:00,39.0,15.6,30.17,SE,133,4.0,4.0,38,0.00,,,0.00,VWS V14.00,2013-03-07 14:01:00,
2013-03-07 09:06:00,39.4,14.0,30.17,SSE,151,3.1,3.6,35,0.00,,,0.00,VWS V14.00,2013-03-07 14:06:00,
2013-03-07 09:11:00,39.9,14.5,30.17,SSW,203,0.0,4.0,35,0.00,,,0.00,VWS V14.00,2013-03-07 14:11:00,
2013-03-07 09:16:00,40.5,15.0,30.17,SSW,208,0.0,0.0,35,0.00,,,0.00,VWS V14.00,2013-03-07 14:16:00,
2013-03-07 09:21:00,40.8,14.6,30.17,WNW,301,4.0,4.0,34,0.00,,,0.00,VWS V14.00,2013-03-07 14:21:00,
2013-03-07 09:26:00,41.2,15.0,30.17,SW,226,0.0,0.0,34,0.00,,,0.00,VWS V14.00,2013-03-07 14:26:00,
2013-03-07 09:31:00,41.2,14.3,30.17,SE,138,3.1,4.0,33,0.00,,,0.00,VWS V14.00,2013-03-07 14:31:00,
2013-03-07 09:37:00,41.2,14.3,30.17,SSE,152,2.7,4.0,33,0.00,,,0.00,VWS V14.00,2013-03-07 14:37:00,
2013-03-07 09:42:00,41.4,14.4,30.17,SE,139,4.0,4.0,33,0.00,,,0.00,VWS V14.00,2013-03-07 14:42:00,
2013-03-07 09:47:00,41.5,14.6,30.17,NE,37,0.0,0.0,33,0.00,,,0.00,VWS V14.00,2013-03-07 14:47:00,
2013-03-07 09:52:00,41.7,14.1,30.17,South,186,0.0,2.2,32,0.00,,,0.00,VWS V14.00,2013-03-07 14:52:00,
2013-03-07 09:57:00,41.9,13.5,30.17,SW,216,0.0,0.0,31,0.00,,,0.00,VWS V14.00,2013-03-07 14:57:00,
2013-03-07 10:02:00,42.1,13.6,30.17,SW,220,0.0,0.0,31,0.00,,,0.00,VWS V14.00,2013-03-07 15:02:00,
2013-03-07 10:07:00,42.4,14.0,30.17,South,172,0.0,0.0,31,0.00,,,0.00,VWS V14.00,2013-03-07 15:07:00,
2013-03-07 10:12:00,42.4,13.2,30.17,South,189,2.2,3.6,30,0.00,,,0.00,VWS V14.00,2013-03-07 15:12:00,
2013-03-07 10:17:00,42.6,13.4,30.17,SW,216,3.6,3.6,30,0.00,,,0.00,VWS V14.00,2013-03-07 15:17:00,
2013-03-07 10:22:00,43.0,13.7,30.17,NE,55,2.2,4.0,30,0.00,,,0.00,VWS V14.00,2013-03-07 15:22:00,
2013-03-07 10:28:00,43.2,13.8,30.17,SW,223,6.3,6.3,30,0.00,,,0.00,VWS V14.00,2013-03-07 15:28:00,
2013-03-07 10:33:00,43.3,14.0,30.17,SW,235,0.0,0.0,30,0.00,,,0.00,VWS V14.00,2013-03-07 15:33:00,
2013-03-07 10:38:00,43.5,14.2,30.17,South,186,4.0,4.0,30,0.00,,,0.00,VWS V14.00,2013-03-07 15:38:00,
2013-03-07 10:43:00,43.7,14.3,30.17,SE,145,0.0,3.6,30,0.00,,,0.00,VWS V14.00,2013-03-07 15:43:00,
2013-03-07 10:48:00,44.1,15.4,30.17,South,184,0.0,0.0,31,0.00,,,0.00,VWS V14.00,2013-03-07 15:48:00,
2013-03-07 10:53:00,44.2,14.8,30.17,NE,44,0.0,2.7,30,0.00,,,0.00,VWS V14.00,2013-03-07 15:53:00,
2013-03-07 10:58:00,44.4,14.9,30.17,East,82,0.0,2.2,30,0.00,,,0.00,VWS V14.00,2013-03-07 15:58:00,
2013-03-07 11:03:00,44.6,15.1,30.17,ENE,63,0.0,2.7,30,0.00,,,0.00,VWS V14.00,2013-03-07 16:03:00,
2013-03-07 11:08:00,44.6,15.1,30.17,ENE,58,4.0,4.0,30,0.00,,,0.00,VWS V14.00,2013-03-07 16:08:00,
2013-03-07 11:13:00,44.8,15.3,30.17,SE,125,0.0,0.0,30,0.00,,,0.00,VWS V14.00,2013-03-07 16:13:00,
2013-03-07 11:18:00,44.8,15.3,30.14,ESE,109,5.4,5.4,30,0.00,,,0.00,VWS V14.00,2013-03-07 16:18:00,
2013-03-07 11:23:00,45.0,15.4,30.14,West,262,0.0,0.0,30,0.00,,,0.00,VWS V14.00,2013-03-07 16:23:00,
2013-03-07 11:28:00,45.0,14.6,30.14,SW,229,3.6,3.6,29,0.00,,,0.00,VWS V14.00,2013-03-07 16:28:00,
2013-03-07 11:33:00,45.0,14.6,30.14,SSW,198,0.0,0.0,29,0.00,,,0.00,VWS V14.00,2013-03-07 16:33:00,
2013-03-07 11:38:00,45.1,15.6,30.14,SSE,155,0.0,3.1,30,0.00,,,0.00,VWS V14.00,2013-03-07 16:38:00,
2013-03-07 11:43:00,44.8,14.5,30.14,West,273,2.2,2.2,29,0.00,,,0.00,VWS V14.00,2013-03-07 16:43:00,
2013-03-07 11:48:00,44.8,14.5,30.14,SE,131,3.1,3.6,29,0.00,,,0.00,VWS V14.00,2013-03-07 16:48:00,
2013-03-07 11:53:00,44.8,14.5,30.14,ESE,110,3.1,3.1,29,0.00,,,0.00,VWS V14.00,2013-03-07 16:53:00,
2013-03-07 11:59:00,44.6,14.3,30.14,ESE,118,3.1,4.0,29,0.00,,,0.00,VWS V14.00,2013-03-07 16:59:00,
2013-03-07 12:04:00,44.6,14.3,30.14,SE,141,0.0,2.2,29,0.00,,,0.00,VWS V14.00,2013-03-07 17:04:00,
2013-03-07 12:09:00,44.4,14.9,30.14,SE,144,3.1,3.6,30,0.00,,,0.00,VWS V14.00,2013-03-07 17:09:00,
2013-03-07 12:14:00,44.6,14.3,30.14,SSW,195,4.0,4.0,29,0.00,,,0.00,VWS V14.00,2013-03-07 17:14:00,
2013-03-07 12:19:00,44.8,14.5,30.14,SE,135,2.2,3.6,29,0.00,,,0.00,VWS V14.00,2013-03-07 17:19:00,
2013-03-07 12:24:00,44.8,14.5,30.14,ESE,106,3.6,4.0,29,0.00,,,0.00,VWS V14.00,2013-03-07 17:24:00,
2013-03-07 12:29:00,44.8,14.5,30.14,East,94,0.0,2.2,29,0.00,,,0.00,VWS V14.00,2013-03-07 17:29:00,
2013-03-07 12:34:00,45.0,14.6,30.14,SE,137,3.1,4.0,29,0.00,,,0.00,VWS V14.00,2013-03-07 17:34:00,
2013-03-07 12:39:00,45.3,14.9,30.14,SE,144,3.6,3.6,29,0.00,,,0.00,VWS V14.00,2013-03-07 17:39:00,
2013-03-07 12:44:00,45.3,14.9,30.14,SE,141,2.7,3.6,29,0.00,,,0.00,VWS V14.00,2013-03-07 17:44:00,
2013-03-07 12:49:00,45.5,15.1,30.14,South,185,2.2,2.7,29,0.00,,,0.00,VWS V14.00,2013-03-07 17:49:00,
2013-03-07 12:54:00,45.7,14.5,30.14,SSE,154,2.7,6.3,28,0.00,,,0.00,VWS V14.00,2013-03-07 17:54:00,
2013-03-07 12:59:00,45.7,15.3,30.14,ESE,110,3.6,4.9,29,0.00,,,0.00,VWS V14.00,2013-03-07 17:59:00,
2013-03-07 13:04:00,45.9,15.4,30.14,South,185,3.1,5.4,29,0.00,,,0.00,VWS V14.00,2013-03-07 18:04:00,
2013-03-07 13:09:00,45.9,15.4,30.14,SSW,199,3.1,4.9,29,0.00,,,0.00,VWS V14.00,2013-03-07 18:09:00,
2013-03-07 13:14:00,45.9,14.6,30.14,NW,322,0.0,0.0,28,0.00,,,0.00,VWS V14.00,2013-03-07 18:14:00,
2013-03-07 13:19:00,45.7,14.5,30.11,ENE,77,2.7,4.0,28,0.00,,,0.00,VWS V14.00,2013-03-07 18:19:00,
2013-03-07 13:25:00,45.5,15.1,30.11,SSW,209,0.0,4.0,29,0.00,,,0.00,VWS V14.00,2013-03-07 18:25:00,
2013-03-07 13:30:00,45.5,14.3,30.11,ENE,75,2.2,3.6,28,0.00,,,0.00,VWS V14.00,2013-03-07 18:30:00,
2013-03-07 13:35:00,45.3,14.9,30.11,SSE,148,2.7,3.6,29,0.00,,,0.00,VWS V14.00,2013-03-07 18:35:00,
2013-03-07 13:40:00,45.1,14.0,30.11,SSE,151,0.0,0.0,28,0.00,,,0.00,VWS V14.00,2013-03-07 18:40:00,
2013-03-07 13:45:00,45.0,14.6,30.11,SE,144,3.1,3.6,29,0.00,,,0.00,VWS V14.00,2013-03-07 18:45:00,
2013-03-07 13:50:00,45.1,14.0,30.11,ESE,120,5.8,6.3,28,0.00,,,0.00,VWS V14.00,2013-03-07 18:50:00,
2013-03-07 13:55:00,45.0,13.8,30.11,South,184,3.1,3.1,28,0.00,,,0.00,VWS V14.00,2013-03-07 18:55:00,
2013-03-07 14:00:00,45.1,14.8,30.11,SE,144,0.0,3.6,29,0.00,,,0.00,VWS V14.00,2013-03-07 19:00:00,
2013-03-07 14:05:00,45.0,13.8,30.11,ESE,120,2.7,3.6,28,0.00,,,0.00,VWS V14.00,2013-03-07 19:05:00,
2013-03-07 14:10:00,44.6,13.5,30.11,WSW,240,3.6,3.6,28,0.00,,,0.00,VWS V14.00,2013-03-07 19:10:00,
2013-03-07 14:15:00,44.6,14.3,30.11,SSE,157,4.0,5.8,29,0.00,,,0.00,VWS V14.00,2013-03-07 19:15:00,
2013-03-07 14:20:00,44.8,13.7,30.11,South,191,3.1,3.6,28,0.00,,,0.00,VWS V14.00,2013-03-07 19:20:00,
2013-03-07 14:25:00,44.8,13.7,30.11,SSW,209,4.0,4.5,28,0.00,,,0.00,VWS V14.00,2013-03-07 19:25:00,
2013-03-07 14:30:00,44.8,13.7,30.11,WSW,253,4.0,4.0,28,0.00,,,0.00,VWS V14.00,2013-03-07 19:30:00,
2013-03-07 14:35:00,44.8,13.7,30.11,SW,218,2.2,2.2,28,0.00,,,0.00,VWS V14.00,2013-03-07 19:35:00,
2013-03-07 14:40:00,45.0,13.8,30.11,South,182,0.0,0.0,28,0.00,,,0.00,VWS V14.00,2013-03-07 19:40:00,
2013-03-07 14:45:00,45.1,14.0,30.11,SE,146,2.2,2.7,28,0.00,,,0.00,VWS V14.00,2013-03-07 19:45:00,
2013-03-07 14:50:00,45.3,14.1,30.11,West,268,2.7,3.6,28,0.00,,,0.00,VWS V14.00,2013-03-07 19:50:00,
2013-03-07 14:56:00,45.7,14.5,30.11,SE,140,2.7,3.1,28,0.00,,,0.00,VWS V14.00,2013-03-07 19:56:00,
2013-03-07 15:01:00,46.0,14.8,30.11,ESE,113,0.0,0.0,28,0.00,,,0.00,VWS V14.00,2013-03-07 20:01:00,
2013-03-07 15:06:00,46.4,14.2,30.11,NW,323,0.0,2.2,27,0.00,,,0.00,VWS V14.00,2013-03-07 20:06:00,
2013-03-07 15:11:00,46.6,14.4,30.11,South,185,2.2,4.0,27,0.00,,,0.00,VWS V14.00,2013-03-07 20:11:00,
2013-03-07 15:16:00,46.6,14.4,30.11,SW,219,2.2,3.1,27,0.00,,,0.00,VWS V14.00,2013-03-07 20:16:00,
2013-03-07 15:21:00,47.1,14.9,30.11,ESE,108,0.0,0.0,27,0.00,,,0.00,VWS V14.00,2013-03-07 20:21:00,
2013-03-07 15:26:00,47.7,15.3,30.11,SSE,156,2.2,2.2,27,0.00,,,0.00,VWS V14.00,2013-03-07 20:26:00,
2013-03-07 15:31:00,48.0,15.6,30.11,SE,136,3.1,3.1,27,0.00,,,0.00,VWS V14.00,2013-03-07 20:31:00,
2013-03-07 15:36:00,47.8,15.5,30.11,WSW,240,0.0,0.0,27,0.00,,,0.00,VWS V14.00,2013-03-07 20:36:00,
2013-03-07 15:41:00,47.7,15.3,30.11,SSE,149,4.0,4.0,27,0.00,,,0.00,VWS V14.00,2013-03-07 20:41:00,
2013-03-07 15:46:00,46.9,14.7,30.11,SW,217,2.7,2.7,27,0.00,,,0.00,VWS V14.00,2013-03-07 20:46:00,
2013-03-07 15:51:00,46.6,11.7,30.11,SSW,207,3.6,4.0,24,0.00,,,0.00,VWS V14.00,2013-03-07 20:51:00,
2013-03-07 15:56:00,46.0,13.9,30.11,SW,228,2.7,3.1,27,0.00,,,0.00,VWS V14.00,2013-03-07 20:56:00,
2013-03-07 16:01:00,45.3,13.3,30.11,SSE,149,3.6,3.6,27,0.00,,,0.00,VWS V14.00,2013-03-07 21:01:00,
2013-03-07 16:06:00,45.0,13.0,30.11,SSW,207,2.2,2.7,27,0.00,,,0.00,VWS V14.00,2013-03-07 21:06:00,
2013-03-07 16:11:00,44.6,13.5,30.11,SE,140,3.6,3.6,28,0.00,,,0.00,VWS V14.00,2013-03-07 21:11:00,
2013-03-07 16:16:00,44.4,13.4,30.11,WSW,241,2.7,3.6,28,0.00,,,0.00,VWS V14.00,2013-03-07 21:16:00,
2013-03-07 16:21:00,44.8,12.9,30.14,SW,214,3.6,3.6,27,0.00,,,0.00,VWS V14.00,2013-03-07 21:21:00,
2013-03-07 16:26:00,45.1,13.2,30.14,SW,220,4.0,4.0,27,0.00,,,0.00,VWS V14.00,2013-03-07 21:26:00,
2013-03-07 16:31:00,45.0,13.0,30.14,SSW,203,4.0,5.4,27,0.00,,,0.00,VWS V14.00,2013-03-07 21:31:00,
2013-03-07 16:36:00,44.4,10.8,30.14,SSW,213,2.7,5.4,25,0.00,,,0.00,VWS V14.00,2013-03-07 21:36:00,
2013-03-07 16:41:00,44.4,13.4,30.14,SSW,203,0.0,0.0,28,0.00,,,0.00,VWS V14.00,2013-03-07 21:41:00,
2013-03-07 16:46:00,44.4,13.4,30.14,SSW,207,4.0,4.0,28,0.00,,,0.00,VWS V14.00,2013-03-07 21:46:00,
2013-03-07 16:51:00,44.1,10.5,30.14,SSW,207,3.6,6.3,25,0.00,,,0.00,VWS V14.00,2013-03-07 21:51:00,
2013-03-07 16:56:00,43.7,12.8,30.14,SSW,210,2.7,4.0,28,0.00,,,0.00,VWS V14.00,2013-03-07 21:56:00,
2013-03-07 17:01:00,43.7,12.8,30.14,South,173,3.1,3.1,28,0.00,,,0.00,VWS V14.00,2013-03-07 22:01:00,
2013-03-07 17:07:00,43.5,12.6,30.14,WSW,241,0.0,0.0,28,0.00,,,0.00,VWS V14.00,2013-03-07 22:07:00,
2013-03-07 17:12:00,43.3,12.4,30.14,SSW,206,3.1,3.1,28,0.00,,,0.00,VWS V14.00,2013-03-07 22:12:00,
2013-03-07 17:17:00,43.0,12.1,30.14,SSW,200,3.1,4.0,28,0.00,,,0.00,VWS V14.00,2013-03-07 22:17:00,
2013-03-07 17:22:00,42.8,12.0,30.14,SW,215,0.0,0.0,28,0.00,,,0.00,VWS V14.00,2013-03-07 22:22:00,
2013-03-07 17:27:00,42.4,11.7,30.14,SSW,196,2.7,2.7,28,0.00,,,0.00,VWS V14.00,2013-03-07 22:27:00,
2013-03-07 17:32:00,42.3,11.5,30.14,SSW,200,0.0,2.2,28,0.00,,,0.00,VWS V14.00,2013-03-07 22:32:00,
2013-03-07 17:37:00,42.1,11.3,30.17,SSW,198,2.2,2.7,28,0.00,,,0.00,VWS V14.00,2013-03-07 22:37:00,
2013-03-07 17:42:00,41.7,11.0,30.17,ENE,63,3.1,3.1,28,0.00,,,0.00,VWS V14.00,2013-03-07 22:42:00,
2013-03-07 17:47:00,41.5,10.9,30.17,SW,221,3.1,3.1,28,0.00,,,0.00,VWS V14.00,2013-03-07 22:47:00,
2013-03-07 17:52:00,41.4,10.7,30.17,SSW,203,0.0,0.0,28,0.00,,,0.00,VWS V14.00,2013-03-07 22:52:00,
2013-03-07 17:57:00,41.2,10.6,30.17,SW,226,2.7,4.0,28,0.00,,,0.00,VWS V14.00,2013-03-07 22:57:00,
2013-03-07 18:02:00,41.0,10.4,30.17,South,189,0.0,0.0,28,0.00,,,0.00,VWS V14.00,2013-03-07 23:02:00,
2013-03-07 18:07:00,40.6,10.9,30.17,NNE,18,0.0,2.2,29,0.00,,,0.00,VWS V14.00,2013-03-07 23:07:00,
2013-03-07 18:12:00,40.5,10.7,30.17,SSW,203,3.6,3.6,29,0.00,,,0.00,VWS V14.00,2013-03-07 23:12:00,
2013-03-07 18:17:00,40.3,10.6,30.17,SSW,205,0.0,0.0,29,0.00,,,0.00,VWS V14.00,2013-03-07 23:17:00,
2013-03-07 18:22:00,40.1,10.4,30.17,SSW,213,0.0,2.7,29,0.00,,,0.00,VWS V14.00,2013-03-07 23:22:00,
2013-03-07 18:27:00,39.9,10.2,30.17,SSW,213,0.0,0.0,29,0.00,,,0.00,VWS V14.00,2013-03-07 23:27:00,
2013-03-07 18:32:00,39.7,10.1,30.17,SW,217,0.0,3.6,29,0.00,,,0.00,VWS V14.00,2013-03-07 23:32:00,
2013-03-07 18:37:00,39.6,9.9,30.20,SW,217,0.0,0.0,29,0.00,,,0.00,VWS V14.00,2013-03-07 23:37:00,
2013-03-07 18:43:00,39.2,9.6,30.20,SW,217,0.0,0.0,29,0.00,,,0.00,VWS V14.00,2013-03-07 23:43:00,
2013-03-07 18:48:00,39.0,9.5,30.20,SW,217,0.0,0.0,29,0.00,,,0.00,VWS V14.00,2013-03-07 23:48:00,
2013-03-07 18:53:00,38.7,9.2,30.20,NE,45,0.0,0.0,29,0.00,,,0.00,VWS V14.00,2013-03-07 23:53:00,
2013-03-07 18:58:00,38.5,9.0,30.20,NE,42,0.0,0.0,29,0.00,,,0.00,VWS V14.00,2013-03-07 23:58:00,
2013-03-07 19:03:00,38.3,8.8,30.20,NE,42,0.0,0.0,29,0.00,,,0.00,VWS V14.00,2013-03-08 00:03:00,
2013-03-07 19:08:00,38.1,8.7,30.20,NE,42,0.0,0.0,29,0.00,,,0.00,VWS V14.00,2013-03-08 00:08:00,
2013-03-07 19:13:00,37.9,9.3,30.20,NE,42,0.0,0.0,30,0.00,,,0.00,VWS V14.00,2013-03-08 00:13:00,
2013-03-07 19:18:00,37.6,9.0,30.23,NE,42,0.0,0.0,30,0.00,,,0.00,VWS V14.00,2013-03-08 00:18:00,
2013-03-07 19:23:00,37.4,8.8,30.23,East,90,0.0,0.0,30,0.00,,,0.00,VWS V14.00,2013-03-08 00:23:00,
2013-03-07 19:28:00,37.4,8.8,30.23,SSW,208,0.0,0.0,30,0.00,,,0.00,VWS V14.00,2013-03-08 00:28:00,
2013-03-07 19:33:00,37.2,8.6,30.23,North,6,0.0,2.7,30,0.00,,,0.00,VWS V14.00,2013-03-08 00:33:00,
2013-03-07 19:38:00,37.0,9.2,30.23,East,93,0.0,0.0,31,0.00,,,0.00,VWS V14.00,2013-03-08 00:38:00,
2013-03-07 19:43:00,36.9,9.1,30.23,South,187,0.0,0.0,31,0.00,,,0.00,VWS V14.00,2013-03-08 00:43:00,
2013-03-07 19:48:00,36.9,9.1,30.23,SSE,165,0.0,2.2,31,0.00,,,0.00,VWS V14.00,2013-03-08 00:48:00,
2013-03-07 19:53:00,36.7,8.9,30.23,SE,128,0.0,0.0,31,0.00,,,0.00,VWS V14.00,2013-03-08 00:53:00,
2013-03-07 19:58:00,36.7,8.9,30.23,NNW,343,0.0,0.0,31,0.00,,,0.00,VWS V14.00,2013-03-08 00:58:00,
2013-03-07 20:03:00,36.3,9.3,30.23,NNW,343,0.0,0.0,32,0.00,,,0.00,VWS V14.00,2013-03-08 01:03:00,
2013-03-07 20:08:00,36.3,9.3,30.23,North,349,0.0,0.0,32,0.00,,,0.00,VWS V14.00,2013-03-08 01:08:00,
2013-03-07 20:13:00,36.1,9.1,30.23,ESE,114,0.0,0.0,32,0.00,,,0.00,VWS V14.00,2013-03-08 01:13:00,
2013-03-07 20:18:00,36.0,10.3,30.23,East,93,0.0,0.0,34,0.00,,,0.00,VWS V14.00,2013-03-08 01:18:00,
2013-03-07 20:23:00,35.8,10.2,30.23,SE,145,0.0,2.2,34,0.00,,,0.00,VWS V14.00,2013-03-08 01:23:00,
2013-03-07 20:29:00,35.8,10.2,30.23,ENE,78,0.0,0.0,34,0.00,,,0.00,VWS V14.00,2013-03-08 01:29:00,
2013-03-07 20:34:00,35.8,9.5,30.23,NE,52,0.0,0.0,33,0.00,,,0.00,VWS V14.00,2013-03-08 01:34:00,
2013-03-07 20:39:00,35.8,9.5,30.23,SE,141,0.0,0.0,33,0.00,,,0.00,VWS V14.00,2013-03-08 01:39:00,
2013-03-07 20:44:00,35.8,9.5,30.23,SE,141,0.0,0.0,33,0.00,,,0.00,VWS V14.00,2013-03-08 01:44:00,
2013-03-07 20:49:00,35.8,8.8,30.23,SE,134,0.0,0.0,32,0.00,,,0.00,VWS V14.00,2013-03-08 01:49:00,
2013-03-07 20:54:00,35.6,8.7,30.23,SE,134,0.0,0.0,32,0.00,,,0.00,VWS V14.00,2013-03-08 01:54:00,
2013-03-07 20:59:00,35.6,8.7,30.23,SE,135,0.0,0.0,32,0.00,,,0.00,VWS V14.00,2013-03-08 01:59:00,
2013-03-07 21:04:00,35.6,8.7,30.23,ESE,102,0.0,0.0,32,0.00,,,0.00,VWS V14.00,2013-03-08 02:04:00,
2013-03-07 21:09:00,35.4,9.2,30.23,East,101,0.0,0.0,33,0.00,,,0.00,VWS V14.00,2013-03-08 02:09:00,
2013-03-07 21:14:00,35.4,9.2,30.23,ESE,123,0.0,0.0,33,0.00,,,0.00,VWS V14.00,2013-03-08 02:14:00,
2013-03-07 21:19:00,35.1,9.5,30.23,ESE,122,0.0,0.0,34,0.00,,,0.00,VWS V14.00,2013-03-08 02:19:00,
2013-03-07 21:24:00,35.1,9.5,30.23,SE,125,0.0,0.0,34,0.00,,,0.00,VWS V14.00,2013-03-08 02:24:00,
2013-03-07 21:29:00,34.9,10.0,30.23,ESE,121,0.0,0.0,35,0.00,,,0.00,VWS V14.00,2013-03-08 02:29:00,
2013-03-07 21:34:00,34.9,10.0,30.23,ESE,120,0.0,0.0,35,0.00,,,0.00,VWS V14.00,2013-03-08 02:34:00,
2013-03-07 21:39:00,34.9,10.0,30.23,ESE,120,0.0,0.0,35,0.00,,,0.00,VWS V14.00,2013-03-08 02:39:00,
2013-03-07 21:44:00,34.9,10.0,30.23,ESE,120,0.0,0.0,35,0.00,,,0.00,VWS V14.00,2013-03-08 02:44:00,
2013-03-07 21:49:00,34.9,9.4,30.26,ESE,120,0.0,0.0,34,0.00,,,0.00,VWS V14.00,2013-03-08 02:49:00,
2013-03-07 21:54:00,34.7,9.2,30.26,ESE,120,0.0,0.0,34,0.00,,,0.00,VWS V14.00,2013-03-08 02:54:00,
2013-03-07 21:59:00,34.5,9.1,30.26,ESE,120,0.0,0.0,34,0.00,,,0.00,VWS V14.00,2013-03-08 02:59:00,
2013-03-07 22:04:00,34.3,9.5,30.26,East,94,0.0,0.0,35,0.00,,,0.00,VWS V14.00,2013-03-08 03:04:00,
2013-03-07 22:09:00,34.0,9.2,30.26,East,94,0.0,0.0,35,0.00,,,0.00,VWS V14.00,2013-03-08 03:09:00,
2013-03-07 22:14:00,34.0,9.9,30.26,East,99,0.0,0.0,36,0.00,,,0.00,VWS V14.00,2013-03-08 03:14:00,
2013-03-07 22:19:00,33.8,10.3,30.26,ESE,114,0.0,0.0,37,0.00,,,0.00,VWS V14.00,2013-03-08 03:19:00,
2013-03-07 22:24:00,34.0,10.5,30.26,ESE,114,0.0,0.0,37,0.00,,,0.00,VWS V14.00,2013-03-08 03:24:00,
2013-03-07 22:29:00,34.2,10.6,30.26,East,82,2.2,2.7,37,0.00,,,0.00,VWS V14.00,2013-03-08 03:29:00,
2013-03-07 22:34:00,34.3,10.8,30.26,ESE,104,0.0,0.0,37,0.00,,,0.00,VWS V14.00,2013-03-08 03:34:00,
2013-03-07 22:39:00,34.3,10.2,30.26,ESE,102,0.0,3.1,36,0.00,,,0.00,VWS V14.00,2013-03-08 03:39:00,
2013-03-07 22:44:00,34.3,10.2,30.26,ESE,102,0.0,0.0,36,0.00,,,0.00,VWS V14.00,2013-03-08 03:44:00,
2013-03-07 22:49:00,34.2,10.0,30.26,ESE,102,0.0,0.0,36,0.00,,,0.00,VWS V14.00,2013-03-08 03:49:00,
2013-03-07 22:54:00,34.0,9.9,30.26,ESE,102,0.0,0.0,36,0.00,,,0.00,VWS V14.00,2013-03-08 03:54:00,
2013-03-07 22:59:00,33.8,9.7,30.26,ESE,102,0.0,0.0,36,0.00,,,0.00,VWS V14.00,2013-03-08 03:59:00,
2013-03-07 23:04:00,33.3,9.2,30.26,ESE,102,0.0,0.0,36,0.00,,,0.00,VWS V14.00,2013-03-08 04:04:00,
2013-03-07 23:09:00,33.1,9.1,30.26,ESE,102,0.0,0.0,36,0.00,,,0.00,VWS V14.00,2013-03-08 04:09:00,
2013-03-07 23:15:00,32.9,8.9,30.26,ESE,102,0.0,0.0,36,0.00,,,0.00,VWS V14.00,2013-03-08 04:15:00,
2013-03-07 23:20:00,32.7,9.3,30.26,ESE,103,0.0,0.0,37,0.00,,,0.00,VWS V14.00,2013-03-08 04:20:00,
2013-03-07 23:25:00,32.7,9.9,30.26,ESE,102,0.0,0.0,38,0.00,,,0.00,VWS V14.00,2013-03-08 04:25:00,
2013-03-07 23:30:00,32.7,9.9,30.26,ESE,102,0.0,0.0,38,0.00,,,0.00,VWS V14.00,2013-03-08 04:30:00,
2013-03-07 23:35:00,32.9,10.1,30.26,ESE,102,0.0,0.0,38,0.00,,,0.00,VWS V14.00,2013-03-08 04:35:00,
2013-03-07 23:40:00,32.9,10.1,30.26,ESE,102,0.0,0.0,38,0.00,,,0.00,VWS V14.00,2013-03-08 04:40:00,
2013-03-07 23:45:00,33.1,10.8,30.26,ESE,102,0.0,0.0,39,0.00,,,0.00,VWS V14.00,2013-03-08 04:45:00,
2013-03-07 23:50:00,33.1,10.8,30.26,East,101,0.0,0.0,39,0.00,,,0.00,VWS V14.00,2013-03-08 04:50:00,
2013-03-07 23:55:00,33.1,11.4,30.26,ENE,64,0.0,2.2,40,0.00,,,0.00,VWS V14.00,2013-03-08 04:55:00,